createdAt,value
2019-02-17T00:00:30.270Z,3.80
2019-02-17T00:05:34.041Z,4.60
2019-02-17T00:10:37.843Z,4.40
2019-02-17T00:15:41.605Z,3.00
2019-02-17T00:20:45.412Z,3.75
2019-02-17T00:25:49.189Z,4.00
2019-02-17T00:30:53.007Z,4.00
2019-02-17T00:35:56.896Z,3.00
2019-02-17T00:41:01.738Z,3.00
2019-02-17T00:46:05.572Z,2.75
2019-02-17T00:51:09.379Z,4.00
2019-02-17T00:56:13.152Z,3.40
2019-02-17T01:01:17.034Z,3.80
2019-02-17T01:06:20.826Z,3.75
2019-02-17T01:11:24.671Z,3.00
2019-02-17T01:16:28.534Z,3.50
2019-02-17T01:21:32.351Z,3.00
2019-02-17T01:26:36.120Z,3.00
2019-02-17T01:31:39.890Z,4.25
2019-02-17T01:36:43.721Z,3.00
2019-02-17T01:41:47.514Z,3.50
2019-02-17T01:46:51.359Z,2.20
2019-02-17T01:51:55.193Z,3.00
2019-02-17T01:56:58.968Z,3.00
2019-02-17T02:02:02.759Z,3.00
2019-02-17T02:07:06.554Z,3.00
2019-02-17T02:12:10.333Z,3.50
2019-02-17T02:17:14.173Z,3.00
2019-02-17T02:22:17.975Z,3.60
2019-02-17T02:27:21.840Z,3.75
2019-02-17T02:32:25.629Z,2.25
2019-02-17T02:37:29.553Z,2.75
2019-02-17T02:42:33.332Z,3.00
2019-02-17T02:47:37.100Z,4.00
2019-02-17T02:52:41.109Z,2.00
2019-02-17T02:57:44.964Z,3.00
2019-02-17T03:02:49.235Z,2.00
2019-02-17T03:07:53.017Z,3.00
2019-02-17T03:12:56.812Z,2.00
2019-02-17T03:18:00.762Z,2.00
2019-02-17T03:23:04.678Z,3.00
2019-02-17T03:28:08.464Z,2.20
2019-02-17T03:33:12.326Z,3.00
2019-02-17T03:38:16.097Z,3.00
2019-02-17T03:43:20.073Z,2.20
2019-02-17T03:48:23.999Z,3.25
2019-02-17T03:53:27.822Z,3.00
2019-02-17T03:58:31.591Z,2.75
2019-02-17T04:03:35.385Z,3.00
2019-02-17T04:08:39.189Z,2.00
2019-02-17T04:13:42.996Z,3.20
2019-02-17T04:18:46.790Z,2.00
2019-02-17T04:23:50.609Z,3.00
2019-02-17T04:28:54.390Z,2.25
2019-02-17T04:33:58.175Z,2.00
2019-02-17T04:39:01.930Z,2.00
2019-02-17T04:44:05.707Z,2.00
2019-02-17T04:49:09.465Z,2.00
2019-02-17T04:54:13.289Z,3.00
2019-02-17T04:59:17.139Z,2.00
2019-02-17T05:04:20.974Z,2.00
2019-02-17T05:09:24.761Z,2.50
2019-02-17T05:14:28.583Z,2.00
2019-02-17T05:19:32.388Z,1.00
2019-02-17T05:24:36.133Z,2.00
2019-02-17T05:29:39.959Z,2.00
2019-02-17T05:34:43.721Z,2.00
2019-02-17T05:39:48.040Z,2.00
2019-02-17T05:44:51.830Z,2.00
2019-02-17T05:49:55.756Z,2.00
2019-02-17T05:54:59.591Z,3.00
2019-02-17T06:00:03.575Z,2.00
2019-02-17T06:05:07.898Z,2.00
2019-02-17T06:10:11.681Z,2.00
2019-02-17T06:15:15.457Z,2.00
2019-02-17T06:20:19.234Z,2.00
2019-02-17T06:25:23.071Z,2.00
2019-02-17T06:30:27.234Z,2.25
2019-02-17T06:35:31.014Z,1.80
2019-02-17T06:40:34.917Z,1.40
2019-02-17T06:45:38.694Z,2.00
2019-02-17T06:50:42.484Z,1.25
2019-02-17T06:56:16.391Z,1.00
2019-02-17T07:01:24.600Z,2.00
2019-02-17T07:06:29.014Z,1.00
2019-02-17T07:11:32.992Z,2.00
2019-02-17T07:16:36.800Z,1.50
2019-02-17T07:21:40.570Z,2.00
2019-02-17T07:26:44.402Z,1.80
2019-02-17T07:31:57.078Z,0.20
2019-02-17T07:37:00.855Z,2.50
2019-02-17T07:42:04.720Z,1.75
2019-02-17T07:47:08.588Z,1.00
2019-02-17T07:52:12.486Z,33.75
2019-02-17T07:57:16.355Z,36.25
2019-02-17T08:02:20.143Z,34.50
2019-02-17T08:07:23.963Z,29.60
2019-02-17T08:12:27.784Z,25.00
2019-02-17T08:17:31.580Z,25.25
2019-02-17T08:22:35.403Z,22.25
2019-02-17T08:27:39.269Z,23.60
2019-02-17T08:32:44.216Z,19.00
2019-02-17T08:37:48.265Z,20.60
2019-02-17T08:42:52.081Z,19.00
2019-02-17T08:47:55.975Z,18.00
2019-02-17T08:52:59.790Z,20.75
2019-02-17T08:58:03.586Z,20.25
2019-02-17T09:03:07.372Z,19.00
2019-02-17T09:08:11.146Z,21.40
2019-02-17T09:13:14.967Z,20.80
2019-02-17T09:18:18.865Z,21.25
2019-02-17T09:23:22.665Z,17.50
2019-02-17T09:28:26.730Z,20.50
2019-02-17T09:33:30.539Z,21.00
2019-02-17T09:38:34.450Z,21.20
2019-02-17T09:43:38.219Z,21.00
2019-02-17T09:48:42.018Z,20.50
2019-02-17T09:53:45.958Z,21.25
2019-02-17T09:58:49.763Z,19.00
2019-02-17T10:03:53.562Z,18.00
2019-02-17T10:08:57.361Z,17.60
2019-02-17T10:14:01.152Z,18.25
2019-02-17T10:19:05.000Z,17.25
2019-02-17T10:24:08.789Z,17.80
2019-02-17T10:29:12.581Z,16.00
2019-02-17T10:34:16.443Z,16.00
2019-02-17T10:39:20.247Z,16.75
2019-02-17T10:44:24.071Z,17.00
2019-02-17T10:49:27.949Z,16.25
2019-02-17T10:54:31.777Z,16.50
2019-02-17T10:59:35.566Z,15.75
2019-02-17T11:04:39.384Z,15.75
2019-02-17T11:09:43.244Z,13.00
2019-02-17T11:14:47.216Z,16.80
2019-02-17T11:19:51.005Z,13.00
2019-02-17T11:24:55.007Z,13.20
2019-02-17T11:29:58.812Z,14.25
2019-02-17T11:35:02.650Z,14.25
2019-02-17T11:40:08.509Z,14.20
2019-02-17T11:45:14.330Z,36.80
2019-02-17T11:50:18.148Z,36.80
2019-02-17T11:55:22.852Z,29.00
2019-02-17T12:00:26.869Z,25.00
2019-02-17T12:05:30.832Z,25.75
2019-02-17T12:10:34.630Z,22.25
2019-02-17T12:15:38.433Z,22.50
2019-02-17T12:20:57.258Z,19.00
2019-02-17T12:26:20.055Z,19.00
2019-02-17T12:31:27.198Z,18.75
2019-02-17T12:36:31.007Z,18.75
2019-02-17T12:41:34.790Z,19.20
2019-02-17T12:46:38.903Z,18.75
2019-02-17T12:51:42.755Z,18.00
2019-02-17T12:56:46.620Z,16.75
2019-02-17T13:01:50.432Z,17.00
2019-02-17T13:06:54.250Z,17.75
2019-02-17T13:11:58.074Z,17.25
2019-02-17T13:17:01.882Z,17.25
2019-02-17T13:22:05.774Z,17.00
2019-02-17T13:27:09.655Z,15.00
2019-02-17T13:32:13.491Z,18.00
2019-02-17T13:37:17.298Z,19.00
2019-02-17T13:42:21.864Z,15.00
2019-02-17T13:47:25.657Z,15.50
2019-02-17T13:52:31.925Z,16.75
2019-02-17T13:57:35.022Z,15.00
2019-02-17T14:02:38.879Z,14.80
2019-02-17T14:07:42.745Z,15.00
2019-02-17T14:12:46.584Z,18.25
2019-02-17T14:17:50.389Z,16.20
2019-02-17T14:22:54.827Z,13.00
2019-02-17T14:27:58.705Z,12.75
2019-02-17T14:33:02.572Z,14.75
2019-02-17T14:38:06.394Z,15.75
2019-02-17T14:43:10.194Z,17.00
2019-02-17T14:48:13.998Z,17.20
2019-02-17T14:53:17.815Z,14.50
2019-02-17T14:58:21.617Z,14.00
2019-02-17T15:03:25.426Z,15.00
2019-02-17T15:08:29.220Z,15.60
2019-02-17T15:13:33.110Z,14.75
2019-02-17T15:18:36.934Z,15.00
2019-02-17T15:23:40.893Z,16.00
2019-02-17T15:28:51.222Z,18.75
2019-02-17T15:33:50.208Z,16.00
2019-02-17T15:38:54.008Z,14.00
2019-02-17T15:43:57.846Z,15.00
2019-02-17T15:49:01.643Z,16.00
2019-02-17T15:54:05.473Z,15.00
2019-02-17T15:59:09.260Z,15.00
2019-02-17T16:04:13.085Z,16.00
2019-02-17T16:09:16.902Z,16.00
2019-02-17T16:14:20.700Z,16.50
2019-02-17T16:19:24.511Z,16.25
2019-02-17T16:24:28.313Z,17.00
2019-02-17T16:29:32.106Z,16.20
2019-02-17T16:34:38.432Z,17.80
2019-02-17T16:39:41.477Z,15.80
2019-02-17T16:44:45.299Z,15.80
2019-02-17T16:49:49.108Z,14.00
2019-02-17T16:54:52.941Z,14.75
2019-02-17T16:59:56.749Z,14.20
2019-02-17T17:05:00.573Z,14.50
2019-02-17T17:10:04.559Z,15.50
2019-02-17T17:15:08.375Z,15.00
2019-02-17T17:20:12.197Z,14.25
2019-02-17T17:25:16.036Z,17.40
2019-02-17T17:30:19.867Z,15.80
2019-02-17T17:35:23.668Z,16.00
2019-02-17T17:40:27.506Z,16.75
2019-02-17T17:45:31.304Z,16.75
2019-02-17T17:50:35.163Z,17.20
2019-02-17T17:55:38.986Z,20.25
2019-02-17T18:00:43.595Z,19.50
2019-02-17T18:05:47.712Z,17.00
2019-02-17T18:10:51.542Z,18.75
2019-02-17T18:15:55.386Z,18.75
2019-02-17T18:20:59.198Z,22.25
2019-02-17T18:26:03.018Z,20.80
2019-02-17T18:31:06.812Z,18.00
2019-02-17T18:36:10.656Z,20.75
2019-02-17T18:41:14.458Z,20.75
2019-02-17T18:46:18.293Z,19.25
2019-02-17T18:51:22.198Z,22.75
2019-02-17T18:56:26.051Z,21.50
2019-02-17T19:01:29.909Z,21.20
2019-02-17T19:06:33.714Z,22.25
2019-02-17T19:11:37.535Z,18.00
2019-02-17T19:16:41.341Z,20.40
2019-02-17T19:21:45.174Z,18.75
2019-02-17T19:26:48.967Z,18.00
2019-02-17T19:31:52.763Z,17.80
2019-02-17T19:36:56.562Z,18.00
2019-02-17T19:42:00.368Z,18.50
2019-02-17T19:47:04.161Z,17.20
2019-02-17T19:52:07.974Z,17.80
2019-02-17T19:57:11.773Z,15.75
2019-02-17T20:02:16.756Z,16.00
2019-02-17T20:07:20.562Z,16.50
2019-02-17T20:12:24.507Z,16.80
2019-02-17T20:17:30.252Z,13.75
2019-02-17T20:22:33.918Z,15.75
2019-02-17T20:27:37.709Z,16.00
2019-02-17T20:32:41.517Z,16.00
2019-02-17T20:37:45.324Z,14.50
2019-02-17T20:42:49.143Z,16.00
2019-02-17T20:47:52.961Z,14.75
2019-02-17T20:52:56.766Z,14.25
2019-02-17T20:58:00.571Z,15.00
2019-02-17T21:03:04.365Z,16.40
2019-02-17T21:08:08.162Z,15.00
2019-02-17T21:13:11.969Z,15.00
2019-02-17T21:18:15.794Z,15.50
2019-02-17T21:23:19.634Z,14.75
2019-02-17T21:28:23.436Z,13.50
2019-02-17T21:33:27.228Z,13.00
2019-02-17T21:38:31.052Z,13.00
2019-02-17T21:43:34.880Z,15.50
2019-02-17T21:48:38.690Z,13.25
2019-02-17T21:53:42.494Z,12.00
2019-02-17T21:58:46.295Z,12.00
2019-02-17T22:03:50.108Z,14.20
2019-02-17T22:08:53.916Z,10.50
2019-02-17T22:13:57.709Z,12.00
2019-02-17T22:19:01.502Z,14.00
2019-02-17T22:24:05.337Z,12.00
2019-02-17T22:29:09.126Z,11.60
2019-02-17T22:34:12.936Z,13.40
2019-02-17T22:39:16.774Z,11.00
2019-02-17T22:44:20.603Z,14.20
2019-02-17T22:49:24.425Z,11.25
2019-02-17T22:54:28.241Z,11.00
2019-02-17T22:59:32.040Z,10.00
2019-02-17T23:04:35.832Z,11.00
2019-02-17T23:09:39.635Z,9.80
2019-02-17T23:14:43.446Z,12.50
2019-02-17T23:19:47.261Z,11.00
2019-02-17T23:24:51.067Z,10.60
2019-02-17T23:29:54.869Z,10.75
2019-02-17T23:34:58.674Z,10.25
2019-02-17T23:40:02.564Z,11.00
2019-02-17T23:45:07.501Z,9.40
2019-02-17T23:50:11.597Z,9.20
2019-02-17T23:55:15.398Z,10.60
